sensor_id;sensor_type;location;lat;lon;timestamp;temperature;humidity
4651;DHT22;2338;49.602;8.722;2022-11-23T00:01:44;8.60;99.90
4651;DHT22;2338;49.602;8.722;2022-11-23T00:04:30;8.60;99.90
4651;DHT22;2338;49.602;8.722;2022-11-23T00:07:16;8.60;99.90
4651;DHT22;2338;49.602;8.722;2022-11-23T00:10:01;8.70;99.90
4651;DHT22;2338;49.602;8.722;2022-11-23T00:12:47;8.60;99.90
4651;DHT22;2338;49.602;8.722;2022-11-23T00:15:34;8.60;99.90
4651;DHT22;2338;49.602;8.722;2022-11-23T00:18:20;8.60;99.90
4651;DHT22;2338;49.602;8.722;2022-11-23T00:21:06;8.60;99.90
4651;DHT22;2338;49.602;8.722;2022-11-23T00:23:52;8.50;99.90
4651;DHT22;2338;49.602;8.722;2022-11-23T00:26:38;8.50;99.90
4651;DHT22;2338;49.602;8.722;2022-11-23T00:29:23;8.50;99.90
4651;DHT22;2338;49.602;8.722;2022-11-23T00:32:10;8.60;99.90
4651;DHT22;2338;49.602;8.722;2022-11-23T00:34:56;8.50;99.90
4651;DHT22;2338;49.602;8.722;2022-11-23T00:37:41;8.50;99.90
4651;DHT22;2338;49.602;8.722;2022-11-23T00:40:27;8.60;99.90
4651;DHT22;2338;49.602;8.722;2022-11-23T00:43:13;8.60;99.90
4651;DHT22;2338;49.602;8.722;2022-11-23T00:46:04;8.60;99.90
4651;DHT22;2338;49.602;8.722;2022-11-23T00:48:52;8.60;99.90
4651;DHT22;2338;49.602;8.722;2022-11-23T00:51:38;8.50;99.90
4651;DHT22;2338;49.602;8.722;2022-11-23T00:54:23;8.40;99.90
4651;DHT22;2338;49.602;8.722;2022-11-23T00:57:09;8.30;99.90
4651;DHT22;2338;49.602;8.722;2022-11-23T00:59:54;8.40;99.90
4651;DHT22;2338;49.602;8.722;2022-11-23T01:02:40;8.40;99.90
4651;DHT22;2338;49.602;8.722;2022-11-23T01:05:27;8.40;99.90
4651;DHT22;2338;49.602;8.722;2022-11-23T01:08:13;8.40;99.90
4651;DHT22;2338;49.602;8.722;2022-11-23T01:11:00;8.50;99.90
4651;DHT22;2338;49.602;8.722;2022-11-23T01:13:46;8.50;99.90
4651;DHT22;2338;49.602;8.722;2022-11-23T01:16:33;8.40;99.90
4651;DHT22;2338;49.602;8.722;2022-11-23T01:19:20;8.40;99.90
4651;DHT22;2338;49.602;8.722;2022-11-23T01:22:07;8.50;99.90
4651;DHT22;2338;49.602;8.722;2022-11-23T01:24:52;8.50;99.90
4651;DHT22;2338;49.602;8.722;2022-11-23T01:27:38;8.40;99.90
4651;DHT22;2338;49.602;8.722;2022-11-23T01:30:23;8.50;99.90
4651;DHT22;2338;49.602;8.722;2022-11-23T01:33:09;8.40;99.90
4651;DHT22;2338;49.602;8.722;2022-11-23T01:35:55;8.40;99.90
4651;DHT22;2338;49.602;8.722;2022-11-23T01:38:43;8.50;99.90
4651;DHT22;2338;49.602;8.722;2022-11-23T01:41:30;8.50;99.90
4651;DHT22;2338;49.602;8.722;2022-11-23T01:44:28;8.40;99.90
4651;DHT22;2338;49.602;8.722;2022-11-23T01:47:13;8.50;99.90
4651;DHT22;2338;49.602;8.722;2022-11-23T01:49:59;8.50;99.90
4651;DHT22;2338;49.602;8.722;2022-11-23T01:52:44;8.50;99.90
4651;DHT22;2338;49.602;8.722;2022-11-23T01:55:32;8.50;99.90
4651;DHT22;2338;49.602;8.722;2022-11-23T01:58:21;8.50;99.90
4651;DHT22;2338;49.602;8.722;2022-11-23T02:01:08;8.60;99.90
4651;DHT22;2338;49.602;8.722;2022-11-23T02:03:55;8.60;99.90
4651;DHT22;2338;49.602;8.722;2022-11-23T02:06:44;8.60;99.90
4651;DHT22;2338;49.602;8.722;2022-11-23T02:09:31;8.60;99.90
4651;DHT22;2338;49.602;8.722;2022-11-23T02:12:19;8.60;99.90
4651;DHT22;2338;49.602;8.722;2022-11-23T02:15:05;8.60;99.90
4651;DHT22;2338;49.602;8.722;2022-11-23T02:17:51;8.50;99.90
4651;DHT22;2338;49.602;8.722;2022-11-23T02:20:37;8.50;99.90
4651;DHT22;2338;49.602;8.722;2022-11-23T02:23:31;8.50;99.90
4651;DHT22;2338;49.602;8.722;2022-11-23T02:26:21;8.60;99.90
4651;DHT22;2338;49.602;8.722;2022-11-23T02:29:11;8.60;99.90
4651;DHT22;2338;49.602;8.722;2022-11-23T02:31:59;8.70;99.90
4651;DHT22;2338;49.602;8.722;2022-11-23T02:34:44;8.70;99.90
4651;DHT22;2338;49.602;8.722;2022-11-23T02:37:30;8.80;99.90
4651;DHT22;2338;49.602;8.722;2022-11-23T02:40:22;8.80;99.90
4651;DHT22;2338;49.602;8.722;2022-11-23T02:43:10;8.70;99.90
4651;DHT22;2338;49.602;8.722;2022-11-23T02:45:58;8.70;99.90
4651;DHT22;2338;49.602;8.722;2022-11-23T02:48:43;8.70;99.90
4651;DHT22;2338;49.602;8.722;2022-11-23T02:51:29;8.70;99.90
4651;DHT22;2338;49.602;8.722;2022-11-23T02:54:15;8.70;99.90
4651;DHT22;2338;49.602;8.722;2022-11-23T02:57:00;8.80;99.90
4651;DHT22;2338;49.602;8.722;2022-11-23T02:59:47;8.80;99.90
4651;DHT22;2338;49.602;8.722;2022-11-23T03:02:33;8.70;99.90
4651;DHT22;2338;49.602;8.722;2022-11-23T03:05:18;8.70;99.90
4651;DHT22;2338;49.602;8.722;2022-11-23T03:08:04;8.60;99.90
4651;DHT22;2338;49.602;8.722;2022-11-23T03:10:50;8.60;99.90
4651;DHT22;2338;49.602;8.722;2022-11-23T03:13:35;8.60;99.90
4651;DHT22;2338;49.602;8.722;2022-11-23T03:16:22;8.70;99.90
4651;DHT22;2338;49.602;8.722;2022-11-23T03:19:08;8.70;99.90
4651;DHT22;2338;49.602;8.722;2022-11-23T03:21:54;8.80;99.90
4651;DHT22;2338;49.602;8.722;2022-11-23T03:24:39;8.80;99.90
4651;DHT22;2338;49.602;8.722;2022-11-23T03:27:25;8.80;99.90
4651;DHT22;2338;49.602;8.722;2022-11-23T03:30:11;8.80;99.90
4651;DHT22;2338;49.602;8.722;2022-11-23T03:32:58;8.80;99.90
4651;DHT22;2338;49.602;8.722;2022-11-23T03:35:44;8.80;99.90
4651;DHT22;2338;49.602;8.722;2022-11-23T03:38:30;8.80;99.90
4651;DHT22;2338;49.602;8.722;2022-11-23T03:41:15;8.80;99.90
4651;DHT22;2338;49.602;8.722;2022-11-23T03:44:01;8.80;99.90
4651;DHT22;2338;49.602;8.722;2022-11-23T03:46:47;8.90;99.90
4651;DHT22;2338;49.602;8.722;2022-11-23T03:49:34;8.80;99.90
4651;DHT22;2338;49.602;8.722;2022-11-23T03:52:20;8.80;99.90
4651;DHT22;2338;49.602;8.722;2022-11-23T03:55:06;8.80;99.90
4651;DHT22;2338;49.602;8.722;2022-11-23T03:57:52;8.70;99.90
4651;DHT22;2338;49.602;8.722;2022-11-23T04:00:42;8.70;99.90
4651;DHT22;2338;49.602;8.722;2022-11-23T04:03:28;8.70;99.90
4651;DHT22;2338;49.602;8.722;2022-11-23T04:06:17;8.70;99.90
4651;DHT22;2338;49.602;8.722;2022-11-23T04:09:03;8.70;99.90
4651;DHT22;2338;49.602;8.722;2022-11-23T04:11:48;8.70;99.90
4651;DHT22;2338;49.602;8.722;2022-11-23T04:14:34;8.70;99.90
4651;DHT22;2338;49.602;8.722;2022-11-23T04:17:20;8.50;99.90
4651;DHT22;2338;49.602;8.722;2022-11-23T04:20:06;8.50;99.90
4651;DHT22;2338;49.602;8.722;2022-11-23T04:22:53;8.60;99.90
4651;DHT22;2338;49.602;8.722;2022-11-23T04:25:39;8.60;99.90
4651;DHT22;2338;49.602;8.722;2022-11-23T04:28:24;8.50;99.90
4651;DHT22;2338;49.602;8.722;2022-11-23T04:31:10;8.50;99.90
4651;DHT22;2338;49.602;8.722;2022-11-23T04:33:56;8.60;99.90
4651;DHT22;2338;49.602;8.722;2022-11-23T04:36:41;8.60;99.90
4651;DHT22;2338;49.602;8.722;2022-11-23T04:39:28;8.60;99.90
4651;DHT22;2338;49.602;8.722;2022-11-23T04:42:14;8.60;99.90
4651;DHT22;2338;49.602;8.722;2022-11-23T04:45:00;8.70;99.90
4651;DHT22;2338;49.602;8.722;2022-11-23T04:47:46;8.60;99.90
4651;DHT22;2338;49.602;8.722;2022-11-23T04:50:31;8.70;99.90
4651;DHT22;2338;49.602;8.722;2022-11-23T04:53:17;8.70;99.90
4651;DHT22;2338;49.602;8.722;2022-11-23T04:56:04;8.80;99.90
4651;DHT22;2338;49.602;8.722;2022-11-23T04:58:50;8.80;99.90
4651;DHT22;2338;49.602;8.722;2022-11-23T05:01:36;8.90;99.90
4651;DHT22;2338;49.602;8.722;2022-11-23T05:04:21;8.80;99.90
4651;DHT22;2338;49.602;8.722;2022-11-23T05:07:07;8.80;99.90
4651;DHT22;2338;49.602;8.722;2022-11-23T05:09:53;8.90;99.90
4651;DHT22;2338;49.602;8.722;2022-11-23T05:12:40;8.70;99.90
4651;DHT22;2338;49.602;8.722;2022-11-23T05:15:25;8.70;99.90
4651;DHT22;2338;49.602;8.722;2022-11-23T05:18:11;8.80;99.90
4651;DHT22;2338;49.602;8.722;2022-11-23T05:20:57;8.80;99.90
4651;DHT22;2338;49.602;8.722;2022-11-23T05:23:42;8.80;99.90
4651;DHT22;2338;49.602;8.722;2022-11-23T05:26:28;8.80;99.90
4651;DHT22;2338;49.602;8.722;2022-11-23T05:29:15;8.70;99.90
4651;DHT22;2338;49.602;8.722;2022-11-23T05:32:01;8.80;99.90
4651;DHT22;2338;49.602;8.722;2022-11-23T05:34:46;8.90;99.90
4651;DHT22;2338;49.602;8.722;2022-11-23T05:37:32;8.90;99.90
4651;DHT22;2338;49.602;8.722;2022-11-23T05:40:18;8.90;99.90
4651;DHT22;2338;49.602;8.722;2022-11-23T05:43:04;8.80;99.90
4651;DHT22;2338;49.602;8.722;2022-11-23T05:45:51;8.80;99.90
4651;DHT22;2338;49.602;8.722;2022-11-23T05:48:36;8.80;99.90
4651;DHT22;2338;49.602;8.722;2022-11-23T05:51:22;8.80;99.90
4651;DHT22;2338;49.602;8.722;2022-11-23T05:54:08;8.80;99.90
4651;DHT22;2338;49.602;8.722;2022-11-23T05:56:53;8.80;99.90
4651;DHT22;2338;49.602;8.722;2022-11-23T05:59:39;8.80;99.90
4651;DHT22;2338;49.602;8.722;2022-11-23T06:02:26;8.80;99.90
4651;DHT22;2338;49.602;8.722;2022-11-23T06:05:11;8.80;99.90
4651;DHT22;2338;49.602;8.722;2022-11-23T06:07:57;8.80;99.90
4651;DHT22;2338;49.602;8.722;2022-11-23T06:10:42;8.80;99.90
4651;DHT22;2338;49.602;8.722;2022-11-23T06:13:28;8.90;99.90
4651;DHT22;2338;49.602;8.722;2022-11-23T06:16:14;8.90;99.90
4651;DHT22;2338;49.602;8.722;2022-11-23T06:19:01;8.80;99.90
4651;DHT22;2338;49.602;8.722;2022-11-23T06:21:46;8.80;99.90
4651;DHT22;2338;49.602;8.722;2022-11-23T06:24:32;8.80;99.90
4651;DHT22;2338;49.602;8.722;2022-11-23T06:27:18;8.70;99.90
4651;DHT22;2338;49.602;8.722;2022-11-23T06:30:05;8.70;99.90
4651;DHT22;2338;49.602;8.722;2022-11-23T06:32:50;8.60;99.90
4651;DHT22;2338;49.602;8.722;2022-11-23T06:35:37;8.60;99.90
4651;DHT22;2338;49.602;8.722;2022-11-23T06:38:23;8.70;99.90
4651;DHT22;2338;49.602;8.722;2022-11-23T06:41:09;8.70;99.90
4651;DHT22;2338;49.602;8.722;2022-11-23T06:43:55;8.70;99.90
4651;DHT22;2338;49.602;8.722;2022-11-23T06:46:40;8.80;99.90
4651;DHT22;2338;49.602;8.722;2022-11-23T06:49:26;8.80;99.90
4651;DHT22;2338;49.602;8.722;2022-11-23T06:52:13;8.90;99.90
4651;DHT22;2338;49.602;8.722;2022-11-23T06:54:58;8.90;99.90
4651;DHT22;2338;49.602;8.722;2022-11-23T06:57:44;8.90;99.90
4651;DHT22;2338;49.602;8.722;2022-11-23T07:00:30;8.90;99.90
4651;DHT22;2338;49.602;8.722;2022-11-23T07:03:19;8.90;99.90
4651;DHT22;2338;49.602;8.722;2022-11-23T07:06:05;8.90;99.90
4651;DHT22;2338;49.602;8.722;2022-11-23T07:08:53;8.90;99.90
4651;DHT22;2338;49.602;8.722;2022-11-23T07:11:39;8.90;99.90
4651;DHT22;2338;49.602;8.722;2022-11-23T07:14:24;9.00;99.90
4651;DHT22;2338;49.602;8.722;2022-11-23T07:17:10;9.00;99.90
4651;DHT22;2338;49.602;8.722;2022-11-23T07:19:55;9.00;99.90
4651;DHT22;2338;49.602;8.722;2022-11-23T07:22:41;9.00;99.90
4651;DHT22;2338;49.602;8.722;2022-11-23T07:25:28;9.00;99.90
4651;DHT22;2338;49.602;8.722;2022-11-23T07:28:14;8.90;99.90
4651;DHT22;2338;49.602;8.722;2022-11-23T07:31:00;8.90;99.90
4651;DHT22;2338;49.602;8.722;2022-11-23T07:33:45;8.90;99.90
4651;DHT22;2338;49.602;8.722;2022-11-23T07:36:32;8.90;99.90
4651;DHT22;2338;49.602;8.722;2022-11-23T07:39:17;8.80;99.90
4651;DHT22;2338;49.602;8.722;2022-11-23T07:42:04;8.80;99.90
4651;DHT22;2338;49.602;8.722;2022-11-23T07:44:50;8.80;99.90
4651;DHT22;2338;49.602;8.722;2022-11-23T07:47:36;8.80;99.90
4651;DHT22;2338;49.602;8.722;2022-11-23T07:50:22;8.70;99.90
4651;DHT22;2338;49.602;8.722;2022-11-23T07:53:09;8.80;99.90
4651;DHT22;2338;49.602;8.722;2022-11-23T07:55:55;8.80;99.90
4651;DHT22;2338;49.602;8.722;2022-11-23T07:58:43;8.80;99.90
4651;DHT22;2338;49.602;8.722;2022-11-23T08:01:29;8.80;99.90
4651;DHT22;2338;49.602;8.722;2022-11-23T08:04:14;8.90;99.90
4651;DHT22;2338;49.602;8.722;2022-11-23T08:07:00;8.80;99.90
4651;DHT22;2338;49.602;8.722;2022-11-23T08:09:47;8.80;99.90
4651;DHT22;2338;49.602;8.722;2022-11-23T08:12:33;8.90;99.90
4651;DHT22;2338;49.602;8.722;2022-11-23T08:15:20;8.90;99.90
4651;DHT22;2338;49.602;8.722;2022-11-23T08:18:08;8.90;99.90
4651;DHT22;2338;49.602;8.722;2022-11-23T08:20:57;8.80;99.90
4651;DHT22;2338;49.602;8.722;2022-11-23T08:23:42;8.80;99.90
4651;DHT22;2338;49.602;8.722;2022-11-23T08:26:28;8.80;99.90
4651;DHT22;2338;49.602;8.722;2022-11-23T08:29:13;8.90;99.90
4651;DHT22;2338;49.602;8.722;2022-11-23T08:32:00;8.80;99.90
4651;DHT22;2338;49.602;8.722;2022-11-23T08:34:46;8.80;99.90
4651;DHT22;2338;49.602;8.722;2022-11-23T08:37:32;8.80;99.90
4651;DHT22;2338;49.602;8.722;2022-11-23T08:40:17;8.90;99.90
4651;DHT22;2338;49.602;8.722;2022-11-23T08:43:03;8.90;99.90
4651;DHT22;2338;49.602;8.722;2022-11-23T08:45:49;8.90;99.90
4651;DHT22;2338;49.602;8.722;2022-11-23T08:48:36;8.90;99.90
4651;DHT22;2338;49.602;8.722;2022-11-23T08:51:21;8.90;99.90
4651;DHT22;2338;49.602;8.722;2022-11-23T08:54:07;8.90;99.90
4651;DHT22;2338;49.602;8.722;2022-11-23T08:56:52;8.90;99.90
4651;DHT22;2338;49.602;8.722;2022-11-23T08:59:38;8.90;99.90
4651;DHT22;2338;49.602;8.722;2022-11-23T09:02:24;8.90;99.90
4651;DHT22;2338;49.602;8.722;2022-11-23T09:05:10;9.00;99.90
4651;DHT22;2338;49.602;8.722;2022-11-23T09:07:58;9.00;99.90
4651;DHT22;2338;49.602;8.722;2022-11-23T09:10:44;9.00;99.90
4651;DHT22;2338;49.602;8.722;2022-11-23T09:13:29;9.00;99.90
4651;DHT22;2338;49.602;8.722;2022-11-23T09:16:15;9.10;99.90
4651;DHT22;2338;49.602;8.722;2022-11-23T09:19:00;9.20;99.90
4651;DHT22;2338;49.602;8.722;2022-11-23T09:21:47;9.20;99.90
4651;DHT22;2338;49.602;8.722;2022-11-23T09:24:33;9.30;99.90
4651;DHT22;2338;49.602;8.722;2022-11-23T09:27:19;9.30;99.90
4651;DHT22;2338;49.602;8.722;2022-11-23T09:30:05;9.40;99.90
4651;DHT22;2338;49.602;8.722;2022-11-23T09:32:51;9.40;99.90
4651;DHT22;2338;49.602;8.722;2022-11-23T09:35:36;9.40;99.90
4651;DHT22;2338;49.602;8.722;2022-11-23T09:38:23;9.50;99.90
4651;DHT22;2338;49.602;8.722;2022-11-23T09:41:25;9.50;99.90
4651;DHT22;2338;49.602;8.722;2022-11-23T09:44:16;9.70;99.90
4651;DHT22;2338;49.602;8.722;2022-11-23T09:47:12;9.70;99.90
4651;DHT22;2338;49.602;8.722;2022-11-23T09:50:10;9.80;99.90
4651;DHT22;2338;49.602;8.722;2022-11-23T09:53:02;10.00;99.90
4651;DHT22;2338;49.602;8.722;2022-11-23T09:55:51;10.10;99.90
4651;DHT22;2338;49.602;8.722;2022-11-23T09:58:39;10.30;99.90
4651;DHT22;2338;49.602;8.722;2022-11-23T10:01:24;10.40;99.90
4651;DHT22;2338;49.602;8.722;2022-11-23T10:04:16;10.60;99.90
4651;DHT22;2338;49.602;8.722;2022-11-23T10:07:16;10.60;99.90
4651;DHT22;2338;49.602;8.722;2022-11-23T10:10:11;10.70;99.90
4651;DHT22;2338;49.602;8.722;2022-11-23T10:13:09;10.80;99.90
4651;DHT22;2338;49.602;8.722;2022-11-23T10:19:24;11.00;99.90
4651;DHT22;2338;49.602;8.722;2022-11-23T10:22:15;10.90;99.90
4651;DHT22;2338;49.602;8.722;2022-11-23T10:25:15;11.10;99.90
4651;DHT22;2338;49.602;8.722;2022-11-23T10:28:10;11.20;99.90
4651;DHT22;2338;49.602;8.722;2022-11-23T10:31:06;11.30;99.90
4651;DHT22;2338;49.602;8.722;2022-11-23T10:33:59;11.40;99.90
4651;DHT22;2338;49.602;8.722;2022-11-23T10:36:47;11.60;99.90
4651;DHT22;2338;49.602;8.722;2022-11-23T10:39:33;11.80;99.90
4651;DHT22;2338;49.602;8.722;2022-11-23T10:42:23;11.60;99.90
4651;DHT22;2338;49.602;8.722;2022-11-23T10:45:20;11.70;99.90
4651;DHT22;2338;49.602;8.722;2022-11-23T10:48:06;11.60;99.90
4651;DHT22;2338;49.602;8.722;2022-11-23T10:50:51;11.60;99.90
4651;DHT22;2338;49.602;8.722;2022-11-23T10:53:37;11.50;99.90
4651;DHT22;2338;49.602;8.722;2022-11-23T10:56:22;11.50;99.90
4651;DHT22;2338;49.602;8.722;2022-11-23T10:59:25;11.40;99.90
4651;DHT22;2338;49.602;8.722;2022-11-23T11:02:17;11.40;99.90
4651;DHT22;2338;49.602;8.722;2022-11-23T11:05:25;11.40;99.90
4651;DHT22;2338;49.602;8.722;2022-11-23T11:08:13;11.30;99.90
4651;DHT22;2338;49.602;8.722;2022-11-23T11:11:01;11.30;99.90
4651;DHT22;2338;49.602;8.722;2022-11-23T11:13:47;11.20;99.90
4651;DHT22;2338;49.602;8.722;2022-11-23T11:16:35;11.20;99.90
4651;DHT22;2338;49.602;8.722;2022-11-23T11:19:26;11.20;99.90
4651;DHT22;2338;49.602;8.722;2022-11-23T11:22:31;11.20;99.90
4651;DHT22;2338;49.602;8.722;2022-11-23T11:25:27;11.20;99.90
4651;DHT22;2338;49.602;8.722;2022-11-23T11:28:21;11.20;99.90
4651;DHT22;2338;49.602;8.722;2022-11-23T11:31:29;11.10;99.90
4651;DHT22;2338;49.602;8.722;2022-11-23T11:34:22;11.10;99.90
4651;DHT22;2338;49.602;8.722;2022-11-23T11:37:12;11.00;99.90
4651;DHT22;2338;49.602;8.722;2022-11-23T11:40:07;11.10;99.90
4651;DHT22;2338;49.602;8.722;2022-11-23T11:42:56;11.10;99.90
4651;DHT22;2338;49.602;8.722;2022-11-23T11:45:47;11.10;99.90
4651;DHT22;2338;49.602;8.722;2022-11-23T11:48:35;11.20;99.90
4651;DHT22;2338;49.602;8.722;2022-11-23T11:51:27;11.20;99.90
4651;DHT22;2338;49.602;8.722;2022-11-23T11:54:19;11.20;99.90
4651;DHT22;2338;49.602;8.722;2022-11-23T11:57:13;11.30;99.90
4651;DHT22;2338;49.602;8.722;2022-11-23T12:00:03;11.30;99.90
4651;DHT22;2338;49.602;8.722;2022-11-23T12:03:00;11.30;99.90
4651;DHT22;2338;49.602;8.722;2022-11-23T12:05:50;11.30;99.90
4651;DHT22;2338;49.602;8.722;2022-11-23T12:08:42;11.50;99.90
4651;DHT22;2338;49.602;8.722;2022-11-23T12:11:31;11.70;99.90
4651;DHT22;2338;49.602;8.722;2022-11-23T12:14:17;11.80;99.90
4651;DHT22;2338;49.602;8.722;2022-11-23T12:17:09;12.10;99.90
4651;DHT22;2338;49.602;8.722;2022-11-23T12:20:06;12.40;99.90
4651;DHT22;2338;49.602;8.722;2022-11-23T12:23:02;12.70;97.30
4651;DHT22;2338;49.602;8.722;2022-11-23T12:26:01;13.00;93.80
4651;DHT22;2338;49.602;8.722;2022-11-23T12:29:04;13.10;91.70
4651;DHT22;2338;49.602;8.722;2022-11-23T12:31:58;13.50;91.70
4651;DHT22;2338;49.602;8.722;2022-11-23T12:35:04;13.80;88.50
4651;DHT22;2338;49.602;8.722;2022-11-23T12:38:04;13.90;71.20
4651;DHT22;2338;49.602;8.722;2022-11-23T12:44:40;13.90;68.40
4651;DHT22;2338;49.602;8.722;2022-11-23T12:47:38;14.20;64.40
4651;DHT22;2338;49.602;8.722;2022-11-23T12:50:31;14.50;60.40
4651;DHT22;2338;49.602;8.722;2022-11-23T12:53:31;15.00;59.20
4651;DHT22;2338;49.602;8.722;2022-11-23T12:56:29;15.50;55.00
4651;DHT22;2338;49.602;8.722;2022-11-23T12:59:20;15.60;52.90
4651;DHT22;2338;49.602;8.722;2022-11-23T13:08:54;16.00;42.00
4651;DHT22;2338;49.602;8.722;2022-11-23T13:11:56;15.60;42.80
4651;DHT22;2338;49.602;8.722;2022-11-23T13:14:55;15.60;43.30
4651;DHT22;2338;49.602;8.722;2022-11-23T13:17:51;16.90;37.60
4651;DHT22;2338;49.602;8.722;2022-11-23T13:21:02;18.30;34.80
4651;DHT22;2338;49.602;8.722;2022-11-23T13:23:53;20.10;29.50
4651;DHT22;2338;49.602;8.722;2022-11-23T13:26:39;21.10;28.20
4651;DHT22;2338;49.602;8.722;2022-11-23T13:29:53;20.70;28.00
4651;DHT22;2338;49.602;8.722;2022-11-23T13:32:57;18.90;29.30
4651;DHT22;2338;49.602;8.722;2022-11-23T13:35:54;17.00;31.80
4651;DHT22;2338;49.602;8.722;2022-11-23T13:38:41;15.60;37.10
4651;DHT22;2338;49.602;8.722;2022-11-23T13:41:58;14.70;42.00
4651;DHT22;2338;49.602;8.722;2022-11-23T13:44:45;13.80;52.70
4651;DHT22;2338;49.602;8.722;2022-11-23T13:47:30;13.30;60.10
4651;DHT22;2338;49.602;8.722;2022-11-23T13:50:18;12.70;64.10
4651;DHT22;2338;49.602;8.722;2022-11-23T13:53:04;12.30;73.40
4651;DHT22;2338;49.602;8.722;2022-11-23T13:56:22;12.10;78.60
4651;DHT22;2338;49.602;8.722;2022-11-23T13:59:28;11.90;81.80
4651;DHT22;2338;49.602;8.722;2022-11-23T14:02:24;11.80;82.00
4651;DHT22;2338;49.602;8.722;2022-11-23T14:05:33;11.70;82.30
4651;DHT22;2338;49.602;8.722;2022-11-23T14:08:37;11.60;80.50
4651;DHT22;2338;49.602;8.722;2022-11-23T14:11:24;11.50;75.80
4651;DHT22;2338;49.602;8.722;2022-11-23T14:14:16;11.40;77.40
4651;DHT22;2338;49.602;8.722;2022-11-23T14:20:59;11.40;83.00
4651;DHT22;2338;49.602;8.722;2022-11-23T14:24:20;11.30;86.20
4651;DHT22;2338;49.602;8.722;2022-11-23T14:27:25;11.10;90.00
4651;DHT22;2338;49.602;8.722;2022-11-23T14:30:22;10.90;93.70
4651;DHT22;2338;49.602;8.722;2022-11-23T14:33:32;10.80;96.70
4651;DHT22;2338;49.602;8.722;2022-11-23T14:36:30;10.60;96.90
4651;DHT22;2338;49.602;8.722;2022-11-23T14:40:00;10.50;99.90
4651;DHT22;2338;49.602;8.722;2022-11-23T14:42:51;10.30;99.90
4651;DHT22;2338;49.602;8.722;2022-11-23T14:45:37;9.80;99.90
4651;DHT22;2338;49.602;8.722;2022-11-23T14:48:27;9.80;99.90
4651;DHT22;2338;49.602;8.722;2022-11-23T14:51:16;9.70;99.90
4651;DHT22;2338;49.602;8.722;2022-11-23T14:54:09;9.70;99.90
4651;DHT22;2338;49.602;8.722;2022-11-23T14:56:58;9.60;99.90
4651;DHT22;2338;49.602;8.722;2022-11-23T14:59:47;9.50;99.90
4651;DHT22;2338;49.602;8.722;2022-11-23T15:02:35;9.30;99.90
4651;DHT22;2338;49.602;8.722;2022-11-23T15:05:25;9.10;99.90
4651;DHT22;2338;49.602;8.722;2022-11-23T15:08:15;9.20;99.90
4651;DHT22;2338;49.602;8.722;2022-11-23T15:11:06;9.20;99.90
4651;DHT22;2338;49.602;8.722;2022-11-23T15:13:54;9.10;99.90
4651;DHT22;2338;49.602;8.722;2022-11-23T15:16:41;8.90;99.90
4651;DHT22;2338;49.602;8.722;2022-11-23T15:19:28;8.70;99.90
4651;DHT22;2338;49.602;8.722;2022-11-23T15:22:16;8.70;99.90
4651;DHT22;2338;49.602;8.722;2022-11-23T15:25:07;8.80;99.90
4651;DHT22;2338;49.602;8.722;2022-11-23T15:27:58;8.70;99.90
4651;DHT22;2338;49.602;8.722;2022-11-23T15:30:44;8.60;99.90
4651;DHT22;2338;49.602;8.722;2022-11-23T15:33:30;8.50;99.90
4651;DHT22;2338;49.602;8.722;2022-11-23T15:36:17;8.50;99.90
4651;DHT22;2338;49.602;8.722;2022-11-23T15:39:05;8.50;99.90
4651;DHT22;2338;49.602;8.722;2022-11-23T15:41:53;8.40;99.90
4651;DHT22;2338;49.602;8.722;2022-11-23T15:44:40;8.30;99.90
4651;DHT22;2338;49.602;8.722;2022-11-23T15:47:27;8.30;99.90
4651;DHT22;2338;49.602;8.722;2022-11-23T15:50:14;8.30;99.90
4651;DHT22;2338;49.602;8.722;2022-11-23T15:53:00;8.10;99.90
4651;DHT22;2338;49.602;8.722;2022-11-23T15:55:46;8.10;99.90
4651;DHT22;2338;49.602;8.722;2022-11-23T15:58:33;8.10;99.90
4651;DHT22;2338;49.602;8.722;2022-11-23T16:01:21;8.10;99.90
4651;DHT22;2338;49.602;8.722;2022-11-23T16:04:24;8.00;99.90
4651;DHT22;2338;49.602;8.722;2022-11-23T16:07:19;8.10;99.90
4651;DHT22;2338;49.602;8.722;2022-11-23T16:10:19;8.10;99.90
4651;DHT22;2338;49.602;8.722;2022-11-23T16:13:05;8.10;99.90
4651;DHT22;2338;49.602;8.722;2022-11-23T16:15:58;8.10;99.90
4651;DHT22;2338;49.602;8.722;2022-11-23T16:18:46;8.20;99.90
4651;DHT22;2338;49.602;8.722;2022-11-23T16:21:35;8.20;99.90
4651;DHT22;2338;49.602;8.722;2022-11-23T16:24:22;8.20;99.90
4651;DHT22;2338;49.602;8.722;2022-11-23T16:27:13;8.30;99.90
4651;DHT22;2338;49.602;8.722;2022-11-23T16:29:58;8.40;99.90
4651;DHT22;2338;49.602;8.722;2022-11-23T16:32:46;8.40;99.90
4651;DHT22;2338;49.602;8.722;2022-11-23T16:35:33;8.40;99.90
4651;DHT22;2338;49.602;8.722;2022-11-23T16:38:19;8.40;99.90
4651;DHT22;2338;49.602;8.722;2022-11-23T16:41:05;8.50;99.90
4651;DHT22;2338;49.602;8.722;2022-11-23T16:43:51;8.50;99.90
4651;DHT22;2338;49.602;8.722;2022-11-23T16:46:38;8.60;99.90
4651;DHT22;2338;49.602;8.722;2022-11-23T16:49:24;8.70;99.90
4651;DHT22;2338;49.602;8.722;2022-11-23T16:52:11;8.70;99.90
4651;DHT22;2338;49.602;8.722;2022-11-23T16:54:56;8.70;99.90
4651;DHT22;2338;49.602;8.722;2022-11-23T16:57:42;8.70;99.90
4651;DHT22;2338;49.602;8.722;2022-11-23T17:00:28;8.90;99.90
4651;DHT22;2338;49.602;8.722;2022-11-23T17:03:16;9.00;99.90
4651;DHT22;2338;49.602;8.722;2022-11-23T17:06:03;9.10;99.90
4651;DHT22;2338;49.602;8.722;2022-11-23T17:08:52;9.20;99.90
4651;DHT22;2338;49.602;8.722;2022-11-23T17:11:41;9.20;99.90
4651;DHT22;2338;49.602;8.722;2022-11-23T17:14:28;9.30;99.90
4651;DHT22;2338;49.602;8.722;2022-11-23T17:17:18;9.40;99.90
4651;DHT22;2338;49.602;8.722;2022-11-23T17:20:07;9.30;99.90
4651;DHT22;2338;49.602;8.722;2022-11-23T17:22:54;9.40;99.90
4651;DHT22;2338;49.602;8.722;2022-11-23T17:25:45;9.30;99.90
4651;DHT22;2338;49.602;8.722;2022-11-23T17:28:30;9.30;99.90
4651;DHT22;2338;49.602;8.722;2022-11-23T17:31:16;9.10;99.90
4651;DHT22;2338;49.602;8.722;2022-11-23T17:34:01;9.00;99.90
4651;DHT22;2338;49.602;8.722;2022-11-23T17:36:48;8.90;99.90
4651;DHT22;2338;49.602;8.722;2022-11-23T17:39:35;8.90;99.90
4651;DHT22;2338;49.602;8.722;2022-11-23T17:42:21;8.90;99.90
4651;DHT22;2338;49.602;8.722;2022-11-23T17:45:07;9.00;99.90
4651;DHT22;2338;49.602;8.722;2022-11-23T17:47:53;9.00;99.90
4651;DHT22;2338;49.602;8.722;2022-11-23T17:50:39;9.00;99.90
4651;DHT22;2338;49.602;8.722;2022-11-23T17:53:25;9.10;99.90
4651;DHT22;2338;49.602;8.722;2022-11-23T17:56:15;9.10;99.90
4651;DHT22;2338;49.602;8.722;2022-11-23T17:59:02;9.00;99.90
4651;DHT22;2338;49.602;8.722;2022-11-23T18:01:49;9.00;99.90
4651;DHT22;2338;49.602;8.722;2022-11-23T18:04:35;9.00;99.90
4651;DHT22;2338;49.602;8.722;2022-11-23T18:07:21;9.00;99.90
4651;DHT22;2338;49.602;8.722;2022-11-23T18:10:08;9.00;99.90
4651;DHT22;2338;49.602;8.722;2022-11-23T18:12:55;8.90;99.90
4651;DHT22;2338;49.602;8.722;2022-11-23T18:15:43;8.80;99.90
4651;DHT22;2338;49.602;8.722;2022-11-23T18:18:30;8.80;99.90
4651;DHT22;2338;49.602;8.722;2022-11-23T18:21:16;8.90;99.90
4651;DHT22;2338;49.602;8.722;2022-11-23T18:24:01;9.00;99.90
4651;DHT22;2338;49.602;8.722;2022-11-23T18:26:48;9.10;99.90
4651;DHT22;2338;49.602;8.722;2022-11-23T18:29:33;9.10;99.90
4651;DHT22;2338;49.602;8.722;2022-11-23T18:32:20;9.10;99.90
4651;DHT22;2338;49.602;8.722;2022-11-23T18:35:07;9.10;99.90
4651;DHT22;2338;49.602;8.722;2022-11-23T18:37:53;8.90;99.90
4651;DHT22;2338;49.602;8.722;2022-11-23T18:40:38;8.90;99.90
4651;DHT22;2338;49.602;8.722;2022-11-23T18:43:24;8.90;99.90
4651;DHT22;2338;49.602;8.722;2022-11-23T18:46:10;8.80;99.90
4651;DHT22;2338;49.602;8.722;2022-11-23T18:48:57;8.80;99.90
4651;DHT22;2338;49.602;8.722;2022-11-23T18:51:43;8.80;99.90
4651;DHT22;2338;49.602;8.722;2022-11-23T18:54:28;8.70;99.90